Terminal Aerodrome Forecast
Issued by NWS Grand Junction, CO

Home | Current Version | Previous Version | Text Only | Print | Product List | Glossary On
Versions: 1 2 3 4 5 6 7 8 9 10 11 12 13 14 15 16 17 18 19 20 21 22 23 24 25 26
012
FTUS45 KGJT 112320
TAFGJT
TAF
KGJT 112320Z 1200/1224 28004KT P6SM SCT250
     FM120100 21004KT P6SM SCT250
     FM121200 09004KT P6SM FEW250
     FM121800 VRB04KT P6SM FEW250=

USA.gov is the U.S. government's official web portal to all federal, state and local government web resources and services.